Time;durP1;ratioP1;P1;durP2;ratioP2;P2;SDS_P1;SDS_P2;PMS_P1;PMS_P2;Temp;Humidity;BMP_temperature;BMP_pressure;BME280_temperature;BME280_humidity;BME280_pressure;Samples;Min_cycle;Max_cycle;Signal;HPM_P1;HPM_P2
2022/08/29 00:00:37;;;;;;;20.70;7.10;;;;;;;18.18;73.75;100830.05;106920;1253;73290;-68
2022/08/29 00:03:07;;;;;;;14.80;7.00;;;;;;;18.16;74.25;100829.54;107062;1253;71964;-69
2022/08/29 00:05:38;;;;;;;15.00;7.10;;;;;;;18.14;74.31;100825.89;106994;1253;59230;-68
2022/08/29 00:08:07;;;;;;;11.20;6.70;;;;;;;18.14;74.33;100821.72;107123;1253;62481;-69
2022/08/29 00:10:37;;;;;;;13.90;6.40;;;;;;;18.18;74.29;100823.06;107037;1253;57974;-69
2022/08/29 00:13:09;;;;;;;16.30;8.30;;;;;;;18.23;74.03;100823.23;107044;1253;59935;-67
2022/08/29 00:15:38;;;;;;;11.30;7.30;;;;;;;18.24;74.05;100826.04;107086;1253;73412;-68
2022/08/29 00:18:15;;;;;;;11.80;7.20;;;;;;;18.23;74.32;100826.87;107036;1253;62426;-67
2022/08/29 00:20:45;;;;;;;15.20;7.30;;;;;;;18.22;74.32;100827.33;107008;1253;61757;-69
2022/08/29 00:23:14;;;;;;;12.80;7.30;;;;;;;18.19;74.36;100829.54;106965;1253;73515;-70
2022/08/29 00:25:43;;;;;;;10.60;6.80;;;;;;;18.19;74.51;100828.39;106935;1253;62714;-69
2022/08/29 00:28:11;;;;;;;12.70;6.70;;;;;;;18.16;74.83;100825.92;106877;1253;61176;-69
2022/08/29 00:30:41;;;;;;;13.10;7.60;;;;;;;18.15;74.79;100824.08;106941;1254;73313;-69
2022/08/29 00:33:10;;;;;;;17.70;7.30;;;;;;;18.11;74.99;100825.04;107016;1252;73000;-68
2022/08/29 00:35:41;;;;;;;10.40;6.30;;;;;;;18.07;75.20;100823.88;106949;1253;70726;-68
2022/08/29 00:38:13;;;;;;;12.10;6.50;;;;;;;18.04;75.30;100824.48;106908;1253;73454;-68
2022/08/29 00:40:53;;;;;;;15.70;7.00;;;;;;;18.02;75.49;100823.64;106985;1252;59168;-68
2022/08/29 00:43:29;;;;;;;15.00;7.00;;;;;;;18.00;75.46;100826.94;106845;1253;60938;-67
2022/08/29 00:46:27;;;;;;;14.70;7.50;;;;;;;18.00;75.53;100832.27;106900;1254;61910;-69
2022/08/29 00:49:02;;;;;;;16.80;7.00;;;;;;;17.93;75.91;100835.81;107367;1253;70699;-68
2022/08/29 00:51:31;;;;;;;14.70;7.70;;;;;;;17.99;75.73;100837.88;107245;1253;60126;-68
2022/08/29 00:54:05;;;;;;;14.00;7.20;;;;;;;18.00;75.70;100840.13;107001;1253;62937;-68
2022/08/29 00:56:38;;;;;;;15.70;7.40;;;;;;;17.99;75.85;100836.26;106946;1254;57577;-68
2022/08/29 00:59:19;;;;;;;12.20;7.00;;;;;;;17.97;76.10;100838.41;107006;1253;61084;-69
2022/08/29 01:01:48;;;;;;;13.20;7.80;;;;;;;17.95;75.97;100835.96;106908;1253;73128;-68
2022/08/29 01:04:17;;;;;;;14.00;7.50;;;;;;;17.93;74.79;100834.06;106837;1254;72054;-68
2022/08/29 01:06:53;;;;;;;12.90;7.10;;;;;;;17.89;75.11;100833.04;108608;1254;61027;-68
2022/08/29 01:09:24;;;;;;;11.70;7.10;;;;;;;17.84;74.20;100831.95;106788;1255;73841;-67
2022/08/29 01:15:08;;;;;;;14.70;7.10;;;;;;;17.67;74.27;100835.44;106774;1256;58284;-70
2022/08/29 01:17:44;;;;;;;11.10;6.70;;;;;;;17.57;74.99;100832.74;107124;1252;62590;-69
2022/08/29 01:20:39;;;;;;;14.60;7.10;;;;;;;17.51;77.55;100834.23;107223;1251;62514;-68
2022/08/29 01:23:33;;;;;;;12.30;7.20;;;;;;;17.51;77.71;100831.90;106940;1253;70574;-70
2022/08/29 01:26:02;;;;;;;13.90;6.60;;;;;;;17.48;76.31;100832.16;106910;1252;73959;-67
2022/08/29 01:28:36;;;;;;;10.40;6.80;;;;;;;17.43;75.74;100831.98;106920;1253;63335;-66
2022/08/29 01:31:11;;;;;;;11.20;6.50;;;;;;;17.36;75.11;100830.77;106985;1253;58597;-68
2022/08/29 01:33:58;;;;;;;11.70;7.10;;;;;;;17.26;76.69;100828.59;106994;1253;72272;-69
2022/08/29 01:36:46;;;;;;;13.10;7.00;;;;;;;17.19;77.81;100827.53;106929;1253;71016;-70
2022/08/29 01:39:17;;;;;;;12.90;7.00;;;;;;;17.17;77.21;100827.38;106948;1252;70109;-69
2022/08/29 01:41:46;;;;;;;14.10;6.60;;;;;;;17.16;76.24;100827.64;106936;1253;64784;-68
2022/08/29 01:44:19;;;;;;;12.50;7.10;;;;;;;17.15;78.92;100826.52;106807;1253;62814;-68
2022/08/29 01:46:51;;;;;;;13.80;7.10;;;;;;;17.15;78.13;100827.18;106938;1252;57470;-68
2022/08/29 01:49:22;;;;;;;13.10;6.70;;;;;;;17.15;79.71;100825.56;106917;1252;72794;-68
2022/08/29 01:51:51;;;;;;;13.20;7.00;;;;;;;17.15;79.90;100825.40;106969;1252;70963;-70
2022/08/29 01:54:20;;;;;;;16.80;7.70;;;;;;;17.18;79.93;100827.40;106962;1253;70488;-68
2022/08/29 01:56:52;;;;;;;13.00;7.30;;;;;;;17.17;79.79;100826.83;107018;1253;74846;-68
2022/08/29 01:59:26;;;;;;;11.50;6.80;;;;;;;17.17;79.84;100827.52;107060;1253;61805;-69
2022/08/29 02:02:06;;;;;;;11.00;6.20;;;;;;;17.17;79.97;100829.26;107100;1253;61308;-68
2022/08/29 02:04:39;;;;;;;13.10;7.40;;;;;;;17.15;80.25;100829.98;106928;1253;73358;-68
2022/08/29 02:07:08;;;;;;;13.80;6.80;;;;;;;17.15;80.05;100828.58;106846;1253;70446;-67
2022/08/29 02:09:40;;;;;;;13.40;7.30;;;;;;;17.18;79.91;100827.98;106977;1253;62306;-68
2022/08/29 02:12:14;;;;;;;10.70;7.00;;;;;;;17.19;80.01;100831.20;106901;1252;74032;-68
2022/08/29 02:14:44;;;;;;;11.50;7.10;;;;;;;17.18;80.10;100828.52;106931;1253;61838;-68
2022/08/29 02:17:12;;;;;;;11.30;7.40;;;;;;;17.19;79.96;100829.95;107056;1251;61225;-69
2022/08/29 02:19:42;;;;;;;18.10;7.10;;;;;;;17.21;79.83;100831.85;107029;1251;72733;-69
2022/08/29 02:22:13;;;;;;;10.70;6.60;;;;;;;17.25;79.71;100834.83;106933;1253;73572;-69
2022/08/29 02:24:42;;;;;;;14.10;7.00;;;;;;;17.33;79.36;100832.59;107097;1252;63265;-68
2022/08/29 02:27:11;;;;;;;18.10;7.20;;;;;;;17.41;79.36;100834.63;106851;1253;74750;-68
2022/08/29 02:29:40;;;;;;;11.90;6.60;;;;;;;17.43;79.28;100836.77;107101;1253;61330;-71
2022/08/29 02:32:13;;;;;;;20.50;7.80;;;;;;;17.41;79.21;100839.77;106995;1252;58985;-68
2022/08/29 02:34:43;;;;;;;11.30;7.40;;;;;;;17.38;79.18;100842.36;107127;1252;63801;-69
2022/08/29 02:37:16;;;;;;;14.50;7.40;;;;;;;17.33;79.47;100835.13;107008;1253;72206;-67
2022/08/29 02:39:45;;;;;;;11.10;7.00;;;;;;;17.29;79.70;100834.95;107127;1253;59619;-67
2022/08/29 02:42:14;;;;;;;13.10;6.90;;;;;;;17.27;79.77;100830.77;107042;1253;73723;-69
2022/08/29 02:44:43;;;;;;;14.00;7.30;;;;;;;17.25;80.03;100830.77;106888;1253;63366;-68
2022/08/29 02:47:13;;;;;;;12.40;6.50;;;;;;;17.26;79.78;100833.91;107114;1252;61742;-68
2022/08/29 02:49:42;;;;;;;14.10;6.90;;;;;;;17.22;79.70;100824.80;107133;1253;73558;-69
2022/08/29 02:52:12;;;;;;;12.40;7.00;;;;;;;17.25;79.88;100836.25;107094;1252;71667;-70
2022/08/29 02:54:40;;;;;;;17.00;7.40;;;;;;;17.23;80.02;100840.64;107040;1253;70541;-70
2022/08/29 02:57:09;;;;;;;13.10;7.20;;;;;;;17.22;80.10;100845.48;107072;1253;64339;-70
2022/08/29 02:59:38;;;;;;;17.00;7.10;;;;;;;17.19;80.15;100843.82;107037;1252;59170;-68
2022/08/29 03:02:07;;;;;;;18.40;7.30;;;;;;;17.21;80.11;100841.42;107088;1252;58962;-69
2022/08/29 03:04:36;;;;;;;13.00;7.90;;;;;;;17.22;80.10;100842.84;107167;1251;62474;-68
2022/08/29 03:07:05;;;;;;;14.60;7.40;;;;;;;17.26;79.68;100843.94;107147;1251;71108;-69
2022/08/29 03:09:34;;;;;;;13.50;7.90;;;;;;;17.25;79.66;100845.21;107180;1253;71053;-68
2022/08/29 03:12:04;;;;;;;16.70;7.50;;;;;;;17.29;79.45;100850.65;107187;1252;74218;-68
2022/08/29 03:14:32;;;;;;;19.10;7.10;;;;;;;17.32;79.58;100851.19;107177;1251;62790;-67
2022/08/29 03:17:01;;;;;;;14.70;7.70;;;;;;;17.30;79.63;100854.57;107173;1253;59386;-68
2022/08/29 03:19:30;;;;;;;15.00;7.30;;;;;;;17.29;79.67;100854.52;107087;1253;62224;-67
2022/08/29 03:22:05;;;;;;;13.20;7.50;;;;;;;17.30;79.89;100859.73;107089;1253;72210;-67
2022/08/29 03:24:36;;;;;;;17.10;7.60;;;;;;;17.26;79.94;100862.22;107091;1252;71152;-69
2022/08/29 03:27:04;;;;;;;15.50;7.50;;;;;;;17.20;79.46;100865.23;107165;1253;74478;-71
2022/08/29 03:29:33;;;;;;;30.90;15.40;;;;;;;17.12;80.04;100872.23;107137;1252;59043;-68
2022/08/29 03:32:04;;;;;;;19.30;7.60;;;;;;;17.03;80.68;100879.38;107226;1252;58887;-68
2022/08/29 03:34:32;;;;;;;59.00;33.40;;;;;;;16.98;80.94;100885.69;107175;1251;63175;-67
2022/08/29 03:37:02;;;;;;;14.50;7.60;;;;;;;16.94;81.67;100886.56;107196;1252;71003;-68
2022/08/29 03:39:33;;;;;;;15.40;7.50;;;;;;;16.91;81.74;100889.70;107485;1251;70118;-67
2022/08/29 03:42:07;;;;;;;15.40;7.70;;;;;;;16.89;81.65;100890.63;107260;1251;74208;-68
2022/08/29 03:44:39;;;;;;;18.60;7.00;;;;;;;16.73;82.19;100883.88;107243;1251;59517;-68
2022/08/29 03:47:08;;;;;;;14.60;7.00;;;;;;;16.74;82.39;100893.10;107262;1251;58922;-68
2022/08/29 03:49:38;;;;;;;15.60;6.80;;;;;;;16.76;82.33;100897.30;107235;1250;72335;-69
2022/08/29 03:52:10;;;;;;;12.20;7.00;;;;;;;16.77;82.64;100897.60;107319;1250;61588;-70
2022/08/29 03:54:39;;;;;;;15.60;7.20;;;;;;;16.78;82.48;100897.26;107181;1251;70173;-70
2022/08/29 03:57:08;;;;;;;11.70;7.10;;;;;;;16.79;82.38;100902.08;107310;1250;73291;-69
2022/08/29 03:59:37;;;;;;;17.60;7.90;;;;;;;16.81;82.60;100904.55;107278;1251;63433;-69
2022/08/29 04:02:05;;;;;;;12.00;7.30;;;;;;;16.86;82.47;100903.55;107101;1253;61095;-71
2022/08/29 04:07:22;;;;;;;11.80;7.00;;;;;;;16.99;81.92;100905.69;107144;1252;73348;-70
2022/08/29 04:09:51;;;;;;;14.70;7.00;;;;;;;17.06;81.50;100909.91;107226;1251;69078;-69
2022/08/29 04:12:20;;;;;;;17.70;7.80;;;;;;;17.16;81.11;100910.27;107218;1251;64043;-69
2022/08/29 04:14:49;;;;;;;15.00;7.70;;;;;;;17.27;80.65;100916.02;107210;1251;59197;-68
2022/08/29 04:17:18;;;;;;;14.70;8.30;;;;;;;17.39;80.29;100913.70;107056;1251;58944;-68
2022/08/29 04:19:47;;;;;;;15.70;8.10;;;;;;;17.46;80.12;100912.67;106987;1253;62240;-70
2022/08/29 04:22:16;;;;;;;15.30;8.10;;;;;;;17.53;79.83;100919.02;106940;1251;70452;-68
2022/08/29 04:24:45;;;;;;;16.90;7.80;;;;;;;17.56;79.46;100917.72;107084;1250;61391;-68
2022/08/29 04:27:13;;;;;;;18.70;8.00;;;;;;;17.61;78.91;100923.88;106940;1252;74349;-69
2022/08/29 04:29:47;;;;;;;19.60;8.50;;;;;;;17.68;79.13;100927.61;107054;1250;58952;-69
2022/08/29 04:32:16;;;;;;;15.40;8.30;;;;;;;17.78;78.90;100929.28;106935;1253;60435;-68
2022/08/29 04:34:45;;;;;;;15.50;8.10;;;;;;;17.88;77.98;100931.67;107124;1253;62137;-69
2022/08/29 04:37:14;;;;;;;21.30;10.60;;;;;;;17.97;77.07;100928.04;107102;1253;60888;-69
2022/08/29 04:39:43;;;;;;;17.40;8.20;;;;;;;18.08;76.86;100931.73;107115;1251;70811;-68
2022/08/29 04:42:12;;;;;;;14.40;8.10;;;;;;;18.19;76.55;100935.38;107038;1251;74215;-69
2022/08/29 04:44:47;;;;;;;20.10;8.30;;;;;;;18.28;76.34;100928.79;106947;1251;62418;-70
2022/08/29 04:47:16;;;;;;;16.00;7.40;;;;;;;18.39;76.00;100928.45;107079;1250;59106;-68
2022/08/29 04:49:45;;;;;;;13.90;8.10;;;;;;;18.55;75.45;100931.04;107040;1251;72177;-69
2022/08/29 04:52:14;;;;;;;15.60;8.10;;;;;;;18.65;75.17;100930.34;106946;1252;72349;-70
2022/08/29 04:54:42;;;;;;;15.80;8.60;;;;;;;18.76;74.68;100929.19;106957;1253;71864;-69
2022/08/29 04:57:11;;;;;;;28.60;9.60;;;;;;;18.89;74.39;100933.34;107008;1253;72347;-71
2022/08/29 04:59:40;;;;;;;19.30;8.80;;;;;;;19.00;73.00;100935.04;107171;1253;59077;-69
2022/08/29 05:02:10;;;;;;;19.20;9.90;;;;;;;19.06;72.35;100937.22;107206;1253;59109;-68
2022/08/29 05:04:39;;;;;;;23.70;9.10;;;;;;;19.09;72.41;100938.45;107185;1251;62968;-68
2022/08/29 05:07:08;;;;;;;15.10;8.20;;;;;;;19.16;72.39;100937.07;107223;1251;70986;-68
2022/08/29 05:09:37;;;;;;;18.00;9.10;;;;;;;19.24;72.08;100934.94;107243;1251;71420;-70
2022/08/29 05:12:06;;;;;;;11.40;7.00;;;;;;;19.36;71.80;100937.39;107219;1253;74748;-67
2022/08/29 05:14:38;;;;;;;16.00;7.50;;;;;;;19.43;71.41;100941.80;107316;1251;58277;-67
2022/08/29 05:17:07;;;;;;;16.50;8.20;;;;;;;19.42;71.45;100945.82;107199;1251;62787;-69
2022/08/29 05:19:37;;;;;;;16.50;8.40;;;;;;;19.42;71.47;100949.42;107250;1252;62822;-69
2022/08/29 05:22:14;;;;;;;20.50;8.90;;;;;;;19.48;71.41;100947.23;107106;1252;62245;-69
2022/08/29 05:24:43;;;;;;;19.70;9.00;;;;;;;19.56;71.06;100942.46;107245;1251;59919;-71
2022/08/29 05:27:18;;;;;;;16.30;7.80;;;;;;;19.70;70.82;100942.14;107206;1250;62536;-71
2022/08/29 05:29:52;;;;;;;17.50;8.50;;;;;;;19.86;70.22;100943.70;107111;1253;60585;-70
2022/08/29 05:32:21;;;;;;;15.50;8.40;;;;;;;20.00;69.30;100944.34;107208;1252;58751;-70
2022/08/29 05:34:50;;;;;;;17.90;8.20;;;;;;;20.17;68.45;100953.23;107227;1250;62189;-69
2022/08/29 05:37:20;;;;;;;17.20;9.40;;;;;;;20.33;67.96;100953.27;107785;1243;72155;-69
2022/08/29 05:39:50;;;;;;;12.70;7.30;;;;;;;20.49;67.85;100950.30;107875;1243;70993;-68
2022/08/29 05:42:20;;;;;;;11.50;7.40;;;;;;;20.63;67.82;100952.25;107885;1243;74319;-69
2022/08/29 05:44:50;;;;;;;14.00;7.30;;;;;;;20.76;66.80;100953.70;107798;1243;61722;-71
2022/08/29 05:47:20;;;;;;;14.70;7.80;;;;;;;20.91;65.60;100961.02;107813;1243;59009;-69
2022/08/29 05:49:49;;;;;;;15.50;7.20;;;;;;;21.08;65.70;100960.52;107809;1243;72941;-72
2022/08/29 05:52:20;;;;;;;15.40;7.50;;;;;;;21.20;65.16;100958.38;107977;1243;71615;-69
2022/08/29 05:54:49;;;;;;;12.50;7.30;;;;;;;21.28;64.81;100952.91;108110;1243;59186;-71
2022/08/29 05:57:22;;;;;;;11.80;7.20;;;;;;;21.37;64.65;100951.61;107838;1243;63287;-70
2022/08/29 05:59:53;;;;;;;20.60;7.10;;;;;;;21.47;64.47;100957.14;107844;1243;61624;-72
2022/08/29 06:02:22;;;;;;;22.80;6.90;;;;;;;21.57;64.17;100951.89;107848;1244;58550;-69
2022/08/29 06:04:51;;;;;;;13.80;7.60;;;;;;;21.74;63.75;100953.34;107820;1243;63012;-68
2022/08/29 06:07:20;;;;;;;12.50;7.30;;;;;;;21.89;63.34;100953.34;107826;1243;72358;-70
2022/08/29 06:09:51;;;;;;;25.40;8.10;;;;;;;21.98;63.19;100954.64;107885;1243;71285;-69
2022/08/29 06:12:20;;;;;;;18.10;8.40;;;;;;;22.09;62.77;100953.48;107891;1243;65021;-72
2022/08/29 06:14:52;;;;;;;15.40;7.30;;;;;;;22.25;62.09;100956.77;107867;1243;59941;-70
2022/08/29 06:17:21;;;;;;;14.70;6.80;;;;;;;22.34;61.39;100957.65;107815;1243;58955;-69
2022/08/29 06:19:51;;;;;;;10.70;6.10;;;;;;;22.45;61.23;100961.44;107839;1243;73715;-68
2022/08/29 07:21:26;;;;;;;13.20;6.00;;;;;;;25.45;51.95;100948.45;104522;1282;603483;-73
2022/08/29 07:23:57;;;;;;;11.70;6.00;;;;;;;26.06;50.03;100951.73;105175;1260;1595347;-73
2022/08/29 07:26:37;;;;;;;16.10;6.20;;;;;;;26.14;50.18;100952.09;106820;1258;57410;-73
2022/08/29 07:29:16;;;;;;;10.40;5.40;;;;;;;26.27;50.47;100955.08;106859;1259;61607;-71
2022/08/29 07:31:46;;;;;;;11.20;5.20;;;;;;;26.42;49.32;100953.02;106520;1257;73212;-73
2022/08/29 07:34:15;;;;;;;15.30;4.50;;;;;;;26.54;48.53;100950.73;106747;1257;60352;-74
2022/08/29 07:36:48;;;;;;;13.70;5.30;;;;;;;26.65;48.42;100950.30;106774;1257;72006;-73
2022/08/29 07:39:18;;;;;;;12.50;5.10;;;;;;;26.73;47.20;100951.38;108179;1244;59440;-72
2022/08/29 07:41:48;;;;;;;13.80;5.00;;;;;;;26.83;47.01;100950.11;108065;1244;59042;-73
2022/08/29 07:44:18;;;;;;;13.80;5.00;;;;;;;27.00;45.99;100946.08;108150;1244;71904;-73
2022/08/29 07:46:47;;;;;;;9.60;4.90;;;;;;;27.10;46.69;100947.05;108170;1243;71772;-73
2022/08/29 07:49:16;;;;;;;12.90;5.00;;;;;;;27.21;45.98;100947.33;107895;1244;71378;-71
2022/08/29 07:51:45;;;;;;;12.30;5.10;;;;;;;27.30;45.63;100951.77;108169;1244;74625;-73
2022/08/29 07:54:15;;;;;;;9.60;4.90;;;;;;;27.37;45.10;100951.10;107947;1244;62185;-72
2022/08/29 07:56:47;;;;;;;11.20;4.70;;;;;;;27.42;44.65;100947.57;108048;1244;57898;-74
2022/08/29 07:59:19;;;;;;;11.60;5.00;;;;;;;27.50;44.40;100947.02;107692;1244;62164;-74
2022/08/29 08:01:48;;;;;;;13.80;5.40;;;;;;;27.60;44.55;100946.25;108101;1244;71166;-74
2022/08/29 08:04:17;;;;;;;19.30;5.80;;;;;;;27.70;44.33;100946.98;108138;1244;59467;-74
2022/08/29 08:06:47;;;;;;;16.10;4.70;;;;;;;27.80;43.51;100945.64;107996;1244;63185;-73
2022/08/29 08:09:17;;;;;;;12.60;5.00;;;;;;;27.94;43.33;100949.12;107895;1244;60306;-74
2022/08/29 08:11:46;;;;;;;16.00;4.50;;;;;;;28.05;42.99;100944.16;108118;1244;61629;-74
2022/08/29 08:14:15;;;;;;;11.60;4.70;;;;;;;28.14;42.67;100941.64;108114;1244;62502;-74
2022/08/29 08:16:45;;;;;;;9.80;4.70;;;;;;;28.23;42.56;100943.49;108095;1244;62050;-73
2022/08/29 08:19:15;;;;;;;10.60;5.00;;;;;;;28.28;42.80;100936.80;108087;1244;59202;-73
2022/08/29 08:21:45;;;;;;;11.10;4.00;;;;;;;28.43;42.39;100938.23;107835;1244;72575;-72
2022/08/29 08:24:20;;;;;;;12.90;4.90;;;;;;;28.52;41.29;100934.95;108150;1244;59016;-73
2022/08/29 08:26:48;;;;;;;14.50;5.20;;;;;;;28.63;41.01;100936.58;108175;1244;60627;-72
2022/08/29 08:29:17;;;;;;;9.30;4.70;;;;;;;28.67;40.55;100937.14;108212;1244;64629;-73
2022/08/29 08:31:49;;;;;;;12.60;4.70;;;;;;;28.85;40.24;100933.87;108254;1243;71732;-76
2022/08/29 08:34:18;;;;;;;13.30;4.90;;;;;;;28.87;39.81;100929.58;108184;1244;60468;-74
2022/08/29 08:36:47;;;;;;;13.40;5.00;;;;;;;29.01;39.82;100928.55;108223;1244;73943;-73
2022/08/29 08:39:16;;;;;;;13.20;4.90;;;;;;;29.22;39.56;100929.48;108190;1244;58035;-74
2022/08/29 08:41:56;;;;;;;11.50;5.30;;;;;;;29.33;38.89;100932.21;108061;1244;57451;-72
2022/08/29 08:44:54;;;;;;;13.70;5.40;;;;;;;29.43;39.14;100927.93;108411;1244;72100;-72
2022/08/29 08:47:33;;;;;;;10.00;5.10;;;;;;;29.54;38.74;100930.27;108304;1244;62266;-73
2022/08/29 08:50:20;;;;;;;13.70;4.90;;;;;;;29.67;38.49;100931.40;108395;1243;59158;-73
2022/08/29 08:53:06;;;;;;;11.40;4.30;;;;;;;29.89;37.69;100931.41;108340;1244;73628;-75
2022/08/29 08:55:54;;;;;;;16.70;5.20;;;;;;;29.92;37.44;100932.89;108332;1244;58932;-74
2022/08/29 08:58:49;;;;;;;13.60;4.90;;;;;;;29.97;37.35;100928.88;108319;1244;58959;-75
2022/08/29 09:01:42;;;;;;;9.40;4.40;;;;;;;30.08;37.26;100928.20;108384;1242;61362;-72
2022/08/29 09:04:36;;;;;;;9.80;4.40;;;;;;;30.05;36.65;100926.45;108165;1242;70361;-70
2022/08/29 09:07:46;;;;;;;11.30;4.80;;;;;;;30.14;36.67;100922.91;108316;1244;59664;-73
2022/08/29 09:10:40;;;;;;;10.90;4.50;;;;;;;30.35;36.37;100921.07;108271;1242;65000;-73
2022/08/29 09:13:23;;;;;;;15.20;4.80;;;;;;;30.54;36.22;100919.41;108286;1243;61073;-72
2022/08/29 09:15:57;;;;;;;15.00;5.20;;;;;;;30.63;35.97;100919.11;108304;1244;57568;-73
2022/08/29 09:18:34;;;;;;;15.10;6.00;;;;;;;30.78;35.72;100920.37;108324;1244;72105;-72
2022/08/29 09:21:11;;;;;;;10.70;4.70;;;;;;;30.80;35.32;100917.39;108141;1244;72565;-75
2022/08/29 09:24:05;;;;;;;9.70;4.40;;;;;;;30.96;35.26;100917.25;108347;1244;70260;-73
2022/08/29 09:26:34;;;;;;;13.00;4.70;;;;;;;31.07;35.10;100915.83;108273;1244;73742;-71
2022/08/29 09:29:03;;;;;;;12.70;5.80;;;;;;;31.17;34.55;100913.23;108196;1244;60825;-74
2022/08/29 09:31:34;;;;;;;8.70;4.50;;;;;;;31.11;34.40;100912.98;108171;1243;60691;-73
2022/08/29 09:34:14;;;;;;;9.40;4.00;;;;;;;31.32;34.74;100914.51;108051;1244;73172;-74
2022/08/29 09:36:47;;;;;;;9.50;4.40;;;;;;;31.52;33.02;100910.73;108093;1243;62352;-72
2022/08/29 09:39:30;;;;;;;10.10;4.90;;;;;;;31.49;33.39;100908.89;108225;1244;71522;-72
2022/08/29 09:42:18;;;;;;;8.10;4.00;;;;;;;31.56;33.10;100905.52;108141;1244;74095;-73
2022/08/29 09:44:57;;;;;;;9.10;4.30;;;;;;;31.61;32.47;100905.55;108013;1244;57484;-73
2022/08/29 09:47:31;;;;;;;12.20;5.60;;;;;;;31.55;32.97;100901.92;108122;1242;60233;-73
2022/08/29 09:50:23;;;;;;;11.20;4.00;;;;;;;31.65;32.10;100900.19;108100;1244;62738;-73
2022/08/29 09:52:59;;;;;;;8.30;4.00;;;;;;;31.66;32.11;100897.08;108290;1242;60889;-75
2022/08/29 09:55:43;;;;;;;9.90;4.00;;;;;;;31.68;31.89;100896.41;108277;1243;59229;-73
2022/08/29 09:58:16;;;;;;;14.10;4.60;;;;;;;31.60;32.13;100892.08;108268;1243;74028;-73
2022/08/29 10:01:09;;;;;;;13.90;5.20;;;;;;;31.62;32.42;100891.56;108117;1244;60627;-73
2022/08/29 10:03:58;;;;;;;15.50;4.50;;;;;;;31.82;31.94;100890.99;108328;1243;59093;-72
2022/08/29 10:06:31;;;;;;;11.80;4.20;;;;;;;32.04;31.16;100890.15;108096;1242;61372;-73
2022/08/29 10:09:11;;;;;;;12.80;4.60;;;;;;;32.08;31.11;100890.07;107908;1244;60853;-74
2022/08/29 10:12:00;;;;;;;9.90;4.30;;;;;;;32.17;30.69;100885.98;108156;1244;59204;-73
2022/08/29 10:14:39;;;;;;;13.30;4.50;;;;;;;32.36;30.70;100880.18;108211;1243;63647;-74
2022/08/29 10:21:12;;;;;;;8.00;4.00;;;;;;;32.68;29.22;100881.39;108001;1244;58882;-75
2022/08/29 10:24:02;;;;;;;11.90;4.20;;;;;;;32.62;29.06;100881.05;107969;1244;62526;-74
2022/08/29 10:26:59;;;;;;;12.40;4.30;;;;;;;32.64;29.77;100880.80;108096;1244;61516;-74
2022/08/29 10:29:49;;;;;;;9.60;4.70;;;;;;;32.91;29.37;100875.27;108142;1244;68944;-73
2022/08/29 10:32:59;;;;;;;10.40;4.10;;;;;;;33.25;28.51;100875.11;108147;1243;74556;-73
2022/08/29 10:35:57;;;;;;;13.80;4.40;;;;;;;33.81;26.94;100873.73;107973;1244;61673;-73
2022/08/29 10:38:51;;;;;;;20.10;4.30;;;;;;;33.58;26.88;100871.89;108194;1244;58894;-74
2022/08/29 10:41:34;;;;;;;17.70;4.80;;;;;;;33.80;26.43;100870.95;108177;1244;72414;-73
2022/08/29 10:44:44;;;;;;;7.30;4.00;;;;;;;34.03;26.71;100875.27;107870;1244;61120;-73
2022/08/29 10:47:40;;;;;;;11.00;4.00;;;;;;;34.77;26.11;100875.19;107756;1244;70320;-74
2022/08/29 10:50:28;;;;;;;5.90;3.40;;;;;;;35.14;24.88;100872.69;108068;1243;65063;-73
2022/08/29 10:53:39;;;;;;;9.10;4.00;;;;;;;35.28;24.76;100870.86;108076;1244;59127;-71
2022/08/29 10:56:45;;;;;;;10.10;3.90;;;;;;;35.20;24.80;100865.70;108068;1244;60357;-73
2022/08/29 10:59:51;;;;;;;11.60;3.80;;;;;;;35.31;25.37;100866.05;108048;1244;74210;-73
2022/08/29 11:02:36;;;;;;;12.50;3.90;;;;;;;35.76;24.71;100863.02;107934;1244;61098;-74
2022/08/29 11:05:15;;;;;;;12.60;4.10;;;;;;;35.70;24.30;100859.88;108229;1243;59958;-73
2022/08/29 11:07:54;;;;;;;12.80;4.10;;;;;;;35.95;24.65;100852.92;108197;1243;63259;-73
2022/08/29 11:10:39;;;;;;;17.80;4.50;;;;;;;35.92;23.57;100851.09;108124;1244;60365;-74
2022/08/29 11:13:27;;;;;;;7.80;3.60;;;;;;;36.67;23.24;100851.05;108031;1242;61223;-72
2022/08/29 11:16:21;;;;;;;13.50;4.50;;;;;;;36.81;23.10;100846.38;108129;1244;62582;-73
2022/08/29 11:19:09;;;;;;;11.50;4.10;;;;;;;36.49;23.49;100846.15;108136;1244;61604;-73
2022/08/29 11:22:08;;;;;;;13.50;4.30;;;;;;;36.13;23.94;100840.20;107905;1244;59268;-73
2022/08/29 11:24:40;;;;;;;14.00;5.30;;;;;;;36.30;24.06;100834.02;108272;1244;74859;-74
2022/08/29 11:27:50;;;;;;;14.90;5.10;;;;;;;36.54;23.45;100835.67;108105;1244;59218;-73
2022/08/29 11:31:04;;;;;;;12.90;4.00;;;;;;;36.83;23.14;100834.86;108067;1244;58949;-73
2022/08/29 11:33:54;;;;;;;10.50;4.80;;;;;;;36.44;23.15;100835.30;107525;1247;63787;-72
2022/08/29 11:36:52;;;;;;;17.40;4.90;;;;;;;36.87;23.00;100832.93;107698;1248;61583;-71
2022/08/29 11:40:06;;;;;;;10.70;5.20;;;;;;;37.24;22.51;100831.05;108050;1243;59986;-73
2022/08/29 11:42:41;;;;;;;11.70;4.40;;;;;;;36.96;22.57;100828.35;108075;1244;62431;-72
2022/08/29 11:45:28;;;;;;;9.60;3.60;;;;;;;37.54;22.09;100825.13;107956;1244;59024;-70
2022/08/29 11:48:39;;;;;;;14.00;3.80;;;;;;;37.33;22.17;100822.96;108165;1244;61218;-71
2022/08/29 11:51:32;;;;;;;15.30;4.50;;;;;;;36.91;22.56;100822.23;107991;1244;62759;-72
2022/08/29 11:54:22;;;;;;;7.00;3.50;;;;;;;38.01;22.30;100823.05;108186;1244;71361;-73
2022/08/29 11:57:02;;;;;;;8.20;3.20;;;;;;;38.88;20.58;100822.43;108146;1244;60559;-71
2022/08/29 11:59:55;;;;;;;11.00;4.10;;;;;;;39.30;19.82;100818.86;108197;1242;63140;-74
2022/08/29 12:02:26;;;;;;;10.20;3.60;;;;;;;39.00;20.32;100818.65;108226;1243;59305;-72
2022/08/29 12:05:08;;;;;;;10.30;3.60;;;;;;;38.72;20.70;100812.68;107940;1244;57411;-74
2022/08/29 12:07:39;;;;;;;;;;;;;;;38.57;20.86;100812.84;108120;1243;64020;-75
2022/08/29 12:10:28;;;;;;;6.70;3.40;;;;;;;38.74;20.26;100814.61;108138;1242;62311;-72
2022/08/29 12:13:03;;;;;;;8.50;3.20;;;;;;;38.74;20.38;100813.58;107981;1244;70829;-71
2022/08/29 12:15:32;;;;;;;7.70;3.50;;;;;;;38.72;20.14;100812.41;108031;1244;63660;-71
2022/08/29 12:18:07;;;;;;;10.90;3.10;;;;;;;38.64;20.13;100810.06;108158;1244;60503;-72
2022/08/29 12:20:45;;;;;;;10.30;3.50;;;;;;;38.18;20.54;100807.80;108164;1244;60776;-75
2022/08/29 12:23:14;;;;;;;6.60;3.40;;;;;;;38.01;20.67;100805.79;108047;1244;62648;-76
2022/08/29 12:25:53;;;;;;;8.40;3.60;;;;;;;38.31;20.44;100807.85;108303;1241;61471;-74
2022/08/29 12:29:16;;;;;;;7.80;3.20;;;;;;;38.68;20.24;100802.71;108252;1244;71184;-73
2022/08/29 12:32:38;;;;;;;5.40;3.10;;;;;;;40.31;18.32;100805.36;108178;1244;63019;-74
2022/08/29 12:35:18;;;;;;;12.70;3.80;;;;;;;40.36;18.40;100807.31;107859;1244;60635;-74
2022/08/29 12:38:16;;;;;;;10.30;3.40;;;;;;;39.85;18.87;100803.77;107915;1244;58346;-73
2022/08/29 12:41:33;;;;;;;8.40;3.00;;;;;;;40.07;18.65;100800.20;108020;1244;63882;-74
2022/08/29 12:44:10;;;;;;;8.70;3.50;;;;;;;40.73;18.11;100796.91;107754;1244;71472;-71
2022/08/29 12:46:43;;;;;;;8.80;3.10;;;;;;;39.86;19.17;100795.59;107906;1244;60390;-74
2022/08/29 12:49:33;;;;;;;10.90;3.50;;;;;;;39.24;19.58;100789.27;108080;1243;64487;-72
2022/08/29 12:52:06;;;;;;;9.20;3.60;;;;;;;39.88;18.93;100786.09;108186;1242;58218;-73
2022/08/29 12:54:40;;;;;;;8.50;3.30;;;;;;;39.97;18.93;100788.71;108091;1243;59055;-74
2022/08/29 12:57:28;;;;;;;14.40;4.80;;;;;;;39.95;18.76;100779.45;108008;1244;62188;-74
2022/08/29 12:59:58;;;;;;;10.30;3.90;;;;;;;40.56;18.43;100773.96;107844;1244;73280;-73